Orovada, Nevada
Current Conditions -  °F | °C
As of 4:56 PM on Tuesday 21 Oct 2014 (Local Time) from KWMC Reporting Station
Clear Clear  
Wind Chill: 54°   Ceiling: Unl
Heat Index: 54°   Visibility: 10mi
Dew Point: 23°   Wind: 6mph
Humidity: 30%   Direction: 320°NW
Pressure: 30.07"   Gusts: NA
Location:  41.57°N, 117.79°W
Report Text: KWMC 212356Z AUTO 32005KT 10SM CLR 12/M05 A3007 RMK AO2 SLP170 T01221050 10139 20106 56003
Loading
Personal Weather Stations






























Interactive Weather Map
Tropical Storm Tracking
New forecast layout! Learn more

10-Day Weather Forecast

Advertisements
Track Severe Weather on mobile